Time;durP1;ratioP1;P1;durP2;ratioP2;P2;SDS_P1;SDS_P2;PMS_P1;PMS_P2;Temp;Humidity;BMP_temperature;BMP_pressure;BME280_temperature;BME280_humidity;BME280_pressure;Samples;Min_cycle;Max_cycle;Signal;HPM_P1;HPM_P2
2022/03/04 00:00:05;;;;;;;45.17;19.63;;;;;;;0.41;56.42;93577.19;5005460;28;20212;-73
2022/03/04 00:02:30;;;;;;;26.02;13.82;;;;;;;0.40;55.65;93578.22;5005317;28;20022;-74
2022/03/04 00:04:56;;;;;;;28.35;13.90;;;;;;;0.36;55.51;93572.69;5005411;28;20108;-73
2022/03/04 00:07:21;;;;;;;32.65;13.05;;;;;;;0.32;55.12;93571.63;5005393;28;20030;-73
2022/03/04 00:09:47;;;;;;;33.20;14.43;;;;;;;0.34;55.46;93579.22;5005385;28;20022;-73
2022/03/04 00:12:12;;;;;;;27.73;13.55;;;;;;;0.34;54.94;93569.53;5005234;28;20018;-73
2022/03/04 00:14:38;;;;;;;29.88;12.88;;;;;;;0.33;54.75;93572.44;5005077;28;20034;-74
2022/03/04 00:17:04;;;;;;;24.70;11.73;;;;;;;0.31;54.74;93571.91;5005067;28;20027;-73
2022/03/04 00:19:29;;;;;;;28.13;13.23;;;;;;;0.27;55.16;93569.00;5005088;28;20026;-74
2022/03/04 00:21:55;;;;;;;35.72;15.77;;;;;;;0.26;55.55;93572.63;5005098;28;20085;-73
2022/03/04 00:24:22;;;;;;;35.25;16.08;;;;;;;0.29;55.59;93572.13;5005383;28;20244;-74
2022/03/04 00:26:49;;;;;;;33.28;15.48;;;;;;;0.29;56.18;93566.91;5005042;28;20060;-73
2022/03/04 00:29:15;;;;;;;40.55;17.00;;;;;;;0.26;56.44;93564.00;5004952;28;20026;-73
2022/03/04 00:31:42;;;;;;;40.78;17.90;;;;;;;0.23;56.48;93557.44;5005100;28;20045;-73
2022/03/04 00:34:08;;;;;;;36.75;16.75;;;;;;;0.20;56.68;93568.41;5004773;28;20018;-73
2022/03/04 00:36:38;;;;;;;38.95;15.98;;;;;;;0.13;56.68;93566.03;5004611;28;20034;-74
2022/03/04 00:39:07;;;;;;;37.05;15.10;;;;;;;0.14;57.02;93565.00;5004822;28;20096;-74
2022/03/04 00:41:32;;;;;;;38.85;15.80;;;;;;;0.13;57.19;93563.41;5004673;28;20117;-74
2022/03/04 00:43:58;;;;;;;32.42;15.82;;;;;;;0.12;57.11;93555.81;5004545;28;20019;-73
2022/03/04 00:46:23;;;;;;;29.65;14.30;;;;;;;0.11;57.54;93555.03;5004651;28;20030;-73
2022/03/04 00:48:49;;;;;;;35.17;14.45;;;;;;;0.16;57.21;93560.31;5004472;28;20037;-73
2022/03/04 00:51:15;;;;;;;30.63;14.23;;;;;;;0.17;57.33;93546.13;5003801;28;20022;-73
2022/03/04 00:53:41;;;;;;;30.50;14.27;;;;;;;0.12;57.23;93546.13;5004282;28;20014;-73
2022/03/04 00:56:08;;;;;;;28.48;13.50;;;;;;;0.12;57.11;93556.59;5004233;28;20025;-73
2022/03/04 00:58:35;;;;;;;34.40;14.43;;;;;;;0.12;57.18;93561.03;5004451;28;20025;-73
2022/03/04 01:01:01;;;;;;;28.27;13.05;;;;;;;0.07;57.09;93543.47;5004102;28;20022;-73
2022/03/04 01:03:27;;;;;;;30.83;12.90;;;;;;;0.05;57.05;93540.31;5004266;28;20018;-74
2022/03/04 01:05:52;;;;;;;28.45;14.13;;;;;;;0.09;57.41;93546.63;5004207;28;20025;-74
2022/03/04 01:08:18;;;;;;;29.27;13.25;;;;;;;0.08;57.27;93542.44;5003775;28;20022;-74
2022/03/04 01:10:44;;;;;;;25.63;12.70;;;;;;;0.08;57.35;93544.25;5003117;28;20022;-74
2022/03/04 01:13:11;;;;;;;30.95;13.50;;;;;;;0.12;57.15;93540.88;5003787;28;20060;-74
2022/03/04 01:15:37;;;;;;;28.10;12.65;;;;;;;0.07;57.40;93542.69;5004143;28;20026;-74
2022/03/04 01:18:03;;;;;;;26.50;13.00;;;;;;;0.07;57.97;93534.81;5003938;28;20245;-72
2022/03/04 01:20:30;;;;;;;24.25;11.90;;;;;;;0.08;58.21;93536.38;5004002;28;20072;-72
2022/03/04 01:22:59;;;;;;;30.80;13.98;;;;;;;0.01;57.93;93528.78;5003489;28;20205;-72
2022/03/04 01:25:25;;;;;;;28.63;12.45;;;;;;;-0.01;57.64;93531.63;5003964;28;20050;-72
2022/03/04 01:27:50;;;;;;;31.05;15.25;;;;;;;-0.05;57.79;93533.19;5004042;28;20026;-72
2022/03/04 01:30:16;;;;;;;34.13;14.80;;;;;;;0.00;57.94;93524.59;5003702;28;20225;-72
2022/03/04 01:32:42;;;;;;;27.08;14.32;;;;;;;-0.04;57.93;93528.72;5003803;28;20038;-72
2022/03/04 01:35:08;;;;;;;31.83;13.93;;;;;;;-0.12;57.72;93514.31;5003511;28;20026;-72
2022/03/04 01:37:34;;;;;;;31.05;13.63;;;;;;;-0.13;57.91;93525.03;5003476;28;20022;-72
2022/03/04 01:40:00;;;;;;;28.52;12.45;;;;;;;-0.11;58.49;93515.88;5003742;28;20209;-72
2022/03/04 01:42:26;;;;;;;30.17;12.48;;;;;;;-0.15;58.55;93527.13;5003357;28;20053;-72
2022/03/04 01:44:51;;;;;;;27.20;14.10;;;;;;;-0.15;58.61;93527.13;5003720;28;20037;-72
2022/03/04 01:47:17;;;;;;;37.05;15.07;;;;;;;-0.18;58.71;93512.69;5003395;28;20053;-71
2022/03/04 01:49:43;;;;;;;28.27;13.20;;;;;;;-0.22;58.77;93509.00;5003479;28;20038;-72
2022/03/04 01:52:09;;;;;;;35.65;13.27;;;;;;;-0.19;58.67;93513.72;5003324;28;20026;-72
2022/03/04 01:54:35;;;;;;;33.53;13.25;;;;;;;-0.24;58.49;93517.13;5003378;28;20053;-72
2022/03/04 01:57:00;;;;;;;27.92;12.68;;;;;;;-0.21;58.80;93516.59;5003329;28;20334;-72
2022/03/04 01:59:26;;;;;;;23.38;12.85;;;;;;;-0.19;58.71;93498.00;5003320;28;20063;-72
2022/03/04 02:01:53;;;;;;;27.83;12.57;;;;;;;-0.20;58.88;93506.94;5003567;28;20026;-72
2022/03/04 02:04:25;;;;;;;31.73;14.05;;;;;;;-0.18;59.39;93511.88;5003460;28;20065;-72
2022/03/04 02:06:51;;;;;;;37.10;16.65;;;;;;;-0.18;59.21;93515.31;5003361;28;20046;-72
2022/03/04 02:09:18;;;;;;;42.83;17.35;;;;;;;-0.21;58.68;93503.50;5003346;28;20090;-74
2022/03/04 02:11:44;;;;;;;43.38;17.40;;;;;;;-0.18;59.00;93499.59;5003275;28;20030;-73
2022/03/04 02:14:13;;;;;;;36.05;16.83;;;;;;;-0.18;58.64;93504.84;5003542;28;20033;-73
2022/03/04 02:16:52;;;;;;;36.50;16.00;;;;;;;-0.26;58.83;93503.50;5018474;28;20026;-73
2022/03/04 02:19:18;;;;;;;37.53;16.77;;;;;;;-0.27;59.04;93495.88;5003041;28;20041;-72
2022/03/04 02:21:49;;;;;;;40.38;17.23;;;;;;;-0.24;59.19;93498.78;5003318;28;20030;-72
2022/03/04 02:24:17;;;;;;;37.85;16.40;;;;;;;-0.25;59.46;93502.44;5003222;28;20026;-72
2022/03/04 02:26:42;;;;;;;36.63;16.55;;;;;;;-0.30;59.06;93499.03;5003205;28;20057;-73
2022/03/04 02:29:08;;;;;;;36.60;17.17;;;;;;;-0.30;59.25;93507.66;5003256;28;20336;-74
2022/03/04 02:31:33;;;;;;;33.92;15.73;;;;;;;-0.28;59.64;93499.56;5003043;28;20328;-72
2022/03/04 02:33:59;;;;;;;38.47;15.98;;;;;;;-0.29;59.33;93492.72;5003105;28;20038;-72
2022/03/04 02:36:24;;;;;;;39.08;15.63;;;;;;;-0.29;59.36;93503.19;5002843;28;20264;-72
2022/03/04 02:38:50;;;;;;;35.53;15.48;;;;;;;-0.27;59.56;93506.34;5003140;28;20037;-72
2022/03/04 02:41:16;;;;;;;34.33;14.90;;;;;;;-0.29;59.10;93490.88;5002874;28;20072;-72
2022/03/04 02:43:42;;;;;;;29.52;15.35;;;;;;;-0.25;59.77;93488.56;5002808;28;20262;-72
2022/03/04 02:46:07;;;;;;;27.23;14.13;;;;;;;-0.26;59.90;93492.22;5002778;28;20038;-72
2022/03/04 02:48:33;;;;;;;28.48;14.82;;;;;;;-0.30;59.46;93486.69;5003062;28;20312;-72
2022/03/04 02:50:58;;;;;;;37.63;14.30;;;;;;;-0.33;59.14;93486.41;5002883;28;20018;-72
2022/03/04 02:53:24;;;;;;;30.05;14.82;;;;;;;-0.36;59.14;93485.09;5002961;28;20379;-72
2022/03/04 02:55:49;;;;;;;33.80;15.20;;;;;;;-0.33;59.19;93489.81;5002806;28;20019;-72
2022/03/04 02:58:14;;;;;;;33.80;13.77;;;;;;;-0.31;59.63;93492.97;5002824;28;20338;-72
2022/03/04 03:00:40;;;;;;;29.15;15.32;;;;;;;-0.34;59.18;93477.00;5002858;28;20018;-72
2022/03/04 03:03:06;;;;;;;28.52;13.68;;;;;;;-0.34;59.44;93493.50;5002764;28;20030;-72
2022/03/04 03:05:31;;;;;;;31.50;13.52;;;;;;;-0.39;59.53;93493.44;5002786;28;20019;-72
2022/03/04 03:07:56;;;;;;;27.42;12.98;;;;;;;-0.36;59.80;93495.56;5002590;28;20022;-72
2022/03/04 03:10:22;;;;;;;38.75;14.90;;;;;;;-0.41;60.18;93496.34;5002882;28;20031;-72
2022/03/04 03:12:47;;;;;;;30.55;15.88;;;;;;;-0.49;59.91;93498.63;5002710;28;20332;-72
2022/03/04 03:15:13;;;;;;;29.63;13.80;;;;;;;-0.49;59.72;93496.81;5004518;28;20198;-72
2022/03/04 03:17:38;;;;;;;32.17;14.68;;;;;;;-0.46;60.04;93503.38;5006301;28;20209;-73
2022/03/04 03:20:05;;;;;;;32.05;14.30;;;;;;;-0.46;60.19;93490.28;5006287;28;20265;-72
2022/03/04 03:22:31;;;;;;;29.80;14.02;;;;;;;-0.49;59.90;93482.91;5006321;28;20052;-73
2022/03/04 03:24:57;;;;;;;32.88;13.80;;;;;;;-0.58;60.48;93489.69;5006073;28;20022;-73
2022/03/04 03:27:22;;;;;;;32.13;14.73;;;;;;;-0.62;60.16;93492.78;5006435;28;20210;-73
2022/03/04 03:29:48;;;;;;;34.60;14.18;;;;;;;-0.62;59.14;93498.03;5006152;28;20032;-73
2022/03/04 03:32:14;;;;;;;29.42;14.75;;;;;;;-0.70;59.81;93498.50;5006042;28;20033;-73
2022/03/04 03:34:40;;;;;;;32.85;15.82;;;;;;;-0.76;60.31;93496.88;5005941;28;20030;-73
2022/03/04 03:37:06;;;;;;;42.42;16.63;;;;;;;-0.83;60.61;93507.59;5005735;28;20061;-73
2022/03/04 03:39:32;;;;;;;35.45;16.88;;;;;;;-0.89;61.04;93510.41;5005795;28;20026;-73
2022/03/04 03:41:58;;;;;;;35.30;15.27;;;;;;;-0.89;61.25;93505.97;5005778;28;20050;-73
2022/03/04 03:44:23;;;;;;;39.35;19.08;;;;;;;-0.86;61.31;93510.69;5005947;28;20388;-73
2022/03/04 03:46:49;;;;;;;36.88;17.38;;;;;;;-0.85;61.24;93509.66;5005686;28;20014;-73
2022/03/04 03:49:14;;;;;;;35.80;15.95;;;;;;;-0.85;61.22;93504.44;5005784;28;20018;-73
2022/03/04 03:51:41;;;;;;;40.10;17.17;;;;;;;-0.82;61.44;93508.34;5005744;28;20217;-73
2022/03/04 03:54:06;;;;;;;35.70;15.90;;;;;;;-0.83;60.91;93502.34;5005728;28;20022;-73
2022/03/04 03:56:32;;;;;;;37.13;15.27;;;;;;;-0.82;61.14;93500.50;5005623;28;20252;-73
2022/03/04 03:58:57;;;;;;;32.22;16.02;;;;;;;-0.79;61.50;93499.22;5005424;28;20023;-73
2022/03/04 04:01:23;;;;;;;29.85;14.48;;;;;;;-0.82;61.59;93500.50;5005627;28;20026;-73
2022/03/04 04:03:48;;;;;;;28.60;14.52;;;;;;;-0.81;61.33;93504.72;5005581;28;20022;-72
2022/03/04 04:06:14;;;;;;;27.58;13.35;;;;;;;-0.80;61.08;93508.91;5005521;28;20228;-73
2022/03/04 04:08:40;;;;;;;30.20;12.70;;;;;;;-0.88;60.73;93502.28;5005362;28;20057;-73
2022/03/04 04:11:05;;;;;;;26.88;12.60;;;;;;;-0.98;60.01;93502.22;5005281;28;20371;-72
2022/03/04 04:13:31;;;;;;;25.50;12.43;;;;;;;-1.07;60.45;93504.50;5005353;28;20308;-73
2022/03/04 04:15:56;;;;;;;25.65;12.10;;;;;;;-1.18;60.63;93502.84;5005153;28;20030;-73
2022/03/04 04:18:22;;;;;;;31.98;14.60;;;;;;;-1.17;60.68;93509.66;5005319;28;20022;-73
2022/03/04 04:20:47;;;;;;;26.15;13.52;;;;;;;-1.16;61.11;93510.44;5005055;28;20057;-73
2022/03/04 04:23:13;;;;;;;32.83;15.30;;;;;;;-1.23;61.71;93508.81;5004809;28;20033;-73
2022/03/04 04:25:38;;;;;;;28.52;14.18;;;;;;;-1.24;62.00;93519.53;5004480;28;20050;-73
2022/03/04 04:28:04;;;;;;;41.65;16.98;;;;;;;-1.21;61.48;93508.56;5004761;28;20285;-73
2022/03/04 04:30:30;;;;;;;39.00;17.33;;;;;;;-1.28;62.07;93514.00;5004883;28;20321;-73
2022/03/04 04:32:55;;;;;;;37.72;16.77;;;;;;;-1.32;62.29;93517.34;5004897;28;20089;-73
2022/03/04 04:35:21;;;;;;;32.83;15.25;;;;;;;-1.30;62.74;93525.75;5004759;28;20034;-73
2022/03/04 04:37:46;;;;;;;41.35;18.48;;;;;;;-1.31;62.70;93519.72;5004790;28;20148;-72
2022/03/04 04:40:12;;;;;;;43.10;19.05;;;;;;;-1.27;62.47;93520.81;5004541;28;20023;-73
2022/03/04 04:42:37;;;;;;;42.65;18.38;;;;;;;-1.22;62.73;93527.94;5004640;28;20090;-68
2022/03/04 04:45:04;;;;;;;37.47;18.25;;;;;;;-1.19;63.19;93527.41;5004490;28;20033;-72
2022/03/04 04:47:29;;;;;;;38.13;16.58;;;;;;;-1.17;62.72;93527.19;5004483;28;20208;-72
2022/03/04 04:49:55;;;;;;;37.33;17.92;;;;;;;-1.15;62.79;93525.88;5004885;28;20026;-72
2022/03/04 04:52:21;;;;;;;32.03;14.98;;;;;;;-1.13;62.43;93536.09;5004614;28;20281;-72
2022/03/04 04:54:46;;;;;;;38.28;16.98;;;;;;;-1.11;62.63;93534.81;5004494;28;20022;-72
2022/03/04 04:57:12;;;;;;;31.17;13.93;;;;;;;-1.11;62.50;93536.66;5004188;28;20022;-72
2022/03/04 04:59:37;;;;;;;38.50;17.42;;;;;;;-1.12;62.20;93538.47;5004289;28;20030;-70
2022/03/04 05:02:03;;;;;;;36.70;16.58;;;;;;;-1.10;62.43;93531.19;5004379;28;20053;-72
2022/03/04 05:04:29;;;;;;;35.35;16.70;;;;;;;-1.04;62.33;93540.66;5004104;28;20018;-73
2022/03/04 05:06:55;;;;;;;36.42;16.50;;;;;;;-1.01;62.33;93542.75;5004302;28;20018;-72
2022/03/04 05:09:21;;;;;;;38.50;17.77;;;;;;;-1.03;62.11;93536.97;5004249;28;20022;-71
2022/03/04 05:11:46;;;;;;;33.97;15.60;;;;;;;-0.95;62.31;93542.81;5003803;28;20014;-71
2022/03/04 05:14:12;;;;;;;36.78;17.77;;;;;;;-0.98;62.15;93532.81;5004026;28;20101;-71
2022/03/04 05:16:38;;;;;;;39.35;18.00;;;;;;;-0.99;62.05;93533.88;5004005;28;20025;-71
2022/03/04 05:19:03;;;;;;;37.03;16.95;;;;;;;-0.97;61.90;93539.66;5019154;28;20086;-71
2022/03/04 05:21:29;;;;;;;33.75;16.92;;;;;;;-0.96;61.90;93535.97;5003687;28;20320;-71
2022/03/04 05:24:00;;;;;;;36.97;17.13;;;;;;;-0.98;62.08;93532.81;5004089;28;20317;-71
2022/03/04 05:26:31;;;;;;;34.15;17.40;;;;;;;-0.95;61.89;93532.34;5003990;28;20018;-72
2022/03/04 05:28:57;;;;;;;39.28;16.80;;;;;;;-0.93;61.98;93540.72;5002993;28;20201;-72
2022/03/04 05:31:22;;;;;;;41.42;17.38;;;;;;;-0.90;61.97;93525.31;5002057;28;20097;-73
2022/03/04 05:33:48;;;;;;;43.67;17.75;;;;;;;-0.87;62.29;93530.06;5003461;28;20084;-73
2022/03/04 05:36:14;;;;;;;40.05;18.05;;;;;;;-0.87;62.21;93529.28;5003558;28;20199;-73
2022/03/04 05:38:40;;;;;;;42.95;19.92;;;;;;;-0.84;61.78;93528.75;5003233;28;20045;-72
2022/03/04 05:41:05;;;;;;;60.40;21.58;;;;;;;-0.77;61.55;93534.59;5003399;28;20073;-72
2022/03/04 05:43:31;;;;;;;37.92;18.30;;;;;;;-0.75;61.48;93537.75;5003641;28;20034;-73
2022/03/04 05:45:56;;;;;;;43.53;18.65;;;;;;;-0.72;61.39;93541.69;5003655;28;20320;-73
2022/03/04 05:48:22;;;;;;;42.25;18.58;;;;;;;-0.68;61.82;93548.00;5002584;28;20029;-73
2022/03/04 05:50:47;;;;;;;44.33;20.90;;;;;;;-0.63;61.85;93540.97;5001787;28;20263;-73
2022/03/04 05:53:13;;;;;;;37.05;17.08;;;;;;;-0.57;61.91;93548.84;5001535;28;20313;-72
2022/03/04 05:55:39;;;;;;;36.33;17.13;;;;;;;-0.54;61.66;93550.97;5001642;28;20029;-72
2022/03/04 05:58:05;;;;;;;47.28;20.15;;;;;;;-0.49;61.75;93553.63;5001531;28;20030;-73
2022/03/04 06:00:31;;;;;;;42.53;19.70;;;;;;;-0.47;61.79;93544.50;5001656;28;20018;-72
2022/03/04 06:02:57;;;;;;;42.67;18.58;;;;;;;-0.39;61.59;93556.28;5002775;28;20370;-73
2022/03/04 06:05:22;;;;;;;47.47;19.60;;;;;;;-0.35;61.68;93554.75;5003537;28;20041;-73
2022/03/04 06:07:48;;;;;;;48.30;19.90;;;;;;;-0.34;60.74;93553.72;5003407;28;20026;-73
2022/03/04 06:10:13;;;;;;;43.13;20.83;;;;;;;-0.26;60.62;93548.00;5003451;28;20026;-74
2022/03/04 06:12:39;;;;;;;52.55;21.45;;;;;;;-0.16;60.89;93549.91;5003178;28;20042;-73
2022/03/04 06:15:05;;;;;;;49.00;19.80;;;;;;;-0.08;60.57;93538.94;5003212;28;20026;-73
2022/03/04 06:17:31;;;;;;;47.75;21.95;;;;;;;0.01;60.18;93546.31;5003292;28;20284;-72
2022/03/04 06:19:56;;;;;;;53.90;20.83;;;;;;;0.11;59.67;93538.50;5003401;28;20026;-73
2022/03/04 06:22:22;;;;;;;57.50;25.95;;;;;;;0.19;59.20;93551.91;5003345;28;20018;-73
2022/03/04 06:24:48;;;;;;;53.80;27.52;;;;;;;0.20;59.85;93547.44;5003086;28;20343;-73
2022/03/04 06:27:14;;;;;;;66.45;24.58;;;;;;;0.23;59.50;93554.03;5003114;28;20021;-73
2022/03/04 06:29:39;;;;;;;57.28;22.02;;;;;;;0.18;58.84;93552.97;5003169;28;20022;-74
2022/03/04 06:32:05;;;;;;;54.47;20.88;;;;;;;0.19;58.85;93549.28;5003215;28;20040;-74
2022/03/04 06:34:32;;;;;;;50.78;20.80;;;;;;;0.24;58.61;93545.13;5003199;28;20252;-74
2022/03/04 06:36:57;;;;;;;41.63;18.60;;;;;;;0.27;58.41;93548.00;5003103;28;20025;-74
2022/03/04 06:39:23;;;;;;;52.90;20.55;;;;;;;0.34;58.10;93545.94;5003078;28;20018;-74
2022/03/04 06:41:48;;;;;;;65.38;22.67;;;;;;;0.32;59.03;93542.00;5002715;28;20050;-73
2022/03/04 06:44:14;;;;;;;59.83;22.20;;;;;;;0.35;59.03;93547.53;5003280;28;20092;-74
2022/03/04 06:46:39;;;;;;;48.72;21.95;;;;;;;0.32;59.06;93560.34;5002995;28;20316;-74
2022/03/04 06:49:10;;;;;;;54.45;24.40;;;;;;;0.36;59.39;93561.41;5018281;28;20026;-74
2022/03/04 06:51:36;;;;;;;62.47;27.52;;;;;;;0.37;59.32;93553.28;5006603;28;20256;-74
2022/03/04 06:54:02;;;;;;;60.83;29.10;;;;;;;0.38;59.64;93559.31;5006729;28;20041;-73
2022/03/04 06:56:27;;;;;;;64.95;31.17;;;;;;;0.49;59.82;93560.13;5006740;28;20313;-73
2022/03/04 06:58:53;;;;;;;65.25;29.63;;;;;;;0.52;59.61;93573.53;5006652;28;20320;-73
2022/03/04 07:01:19;;;;;;;66.18;30.70;;;;;;;0.49;60.25;93579.31;5006342;28;20106;-73
2022/03/04 07:03:44;;;;;;;69.25;31.48;;;;;;;0.49;60.11;93573.25;5006644;28;20033;-73
2022/03/04 07:06:09;;;;;;;64.03;31.92;;;;;;;0.46;59.94;93581.66;5006320;28;20026;-73
2022/03/04 07:08:37;;;;;;;62.17;31.75;;;;;;;0.38;60.12;93577.69;5006287;28;20061;-73
2022/03/04 07:11:03;;;;;;;73.50;33.10;;;;;;;0.32;60.09;93578.69;5006150;28;20037;-74
2022/03/04 07:13:29;;;;;;;74.55;34.63;;;;;;;0.28;60.46;93590.75;5021499;28;20030;-73
2022/03/04 07:15:54;;;;;;;71.82;33.00;;;;;;;0.37;60.77;93583.97;5021529;28;20018;-72
2022/03/04 07:18:19;;;;;;;72.55;33.30;;;;;;;0.31;60.56;93591.03;5006341;28;20085;-72
2022/03/04 07:20:45;;;;;;;77.47;33.53;;;;;;;0.37;60.96;93586.59;5006301;28;20221;-73
2022/03/04 07:23:11;;;;;;;65.45;31.90;;;;;;;0.49;61.05;93587.16;5006014;28;20054;-73
2022/03/04 07:25:36;;;;;;;83.32;33.13;;;;;;;0.60;60.83;93588.00;5006009;28;20309;-73
2022/03/04 07:28:02;;;;;;;76.70;34.55;;;;;;;0.57;60.51;93578.81;5005932;28;20038;-73
2022/03/04 07:30:27;;;;;;;73.60;34.67;;;;;;;0.77;60.37;93585.16;5006224;28;20030;-72
2022/03/04 07:32:53;;;;;;;78.60;36.58;;;;;;;0.95;59.75;93581.25;5006017;28;20030;-73
2022/03/04 07:35:18;;;;;;;70.88;32.95;;;;;;;1.13;59.25;93578.13;5005738;28;20027;-73
2022/03/04 07:37:44;;;;;;;80.60;33.55;;;;;;;1.35;58.35;93572.66;5005725;28;20097;-73
2022/03/04 07:40:14;;;;;;;64.63;31.75;;;;;;;1.54;57.77;93580.78;5005642;28;20120;-73
2022/03/04 07:42:39;;;;;;;72.45;30.45;;;;;;;1.73;56.80;93581.06;5005836;28;20041;-73
2022/03/04 07:45:08;;;;;;;66.00;30.67;;;;;;;1.89;56.71;93576.53;5005814;28;20018;-73
2022/03/04 07:47:33;;;;;;;70.13;31.17;;;;;;;2.09;56.28;93580.97;5005520;28;20018;-73
2022/03/04 07:49:59;;;;;;;66.72;31.88;;;;;;;2.34;55.75;93584.59;5005729;28;20223;-73
2022/03/04 07:52:31;;;;;;;74.50;31.70;;;;;;;2.48;54.51;93582.97;5005549;28;20022;-73
2022/03/04 07:54:56;;;;;;;;;;;;;;;2.59;54.63;93575.84;5006301;28;20033;-73
2022/03/04 07:57:22;;;;;;;66.90;31.23;;;;;;;2.61;54.39;93582.41;5005559;28;20177;-73
2022/03/04 07:59:47;;;;;;;65.40;30.48;;;;;;;2.61;53.99;93581.63;5005553;28;20033;-72
2022/03/04 08:02:16;;;;;;;68.22;30.75;;;;;;;2.67;54.17;93579.75;5005242;28;20221;-74
2022/03/04 08:04:45;;;;;;;60.83;30.27;;;;;;;2.80;53.16;93581.78;5005515;28;20018;-73
2022/03/04 08:07:10;;;;;;;68.25;29.92;;;;;;;2.91;52.74;93575.44;5005399;28;20068;-73
2022/03/04 08:09:36;;;;;;;66.72;31.20;;;;;;;3.06;53.03;93573.75;5005394;28;20022;-73
2022/03/04 08:12:02;;;;;;;61.65;29.13;;;;;;;3.22;52.32;93576.03;5005288;28;20022;-73
2022/03/04 08:14:28;;;;;;;59.42;28.88;;;;;;;3.39;51.96;93575.63;5005396;28;20049;-74
2022/03/04 08:16:53;;;;;;;70.72;31.17;;;;;;;3.53;51.58;93572.38;5005271;28;20022;-73
2022/03/04 08:19:19;;;;;;;62.60;26.50;;;;;;;3.62;51.60;93573.34;5005072;28;20038;-73
2022/03/04 08:21:45;;;;;;;54.67;23.17;;;;;;;3.72;50.44;93577.75;5005158;28;20085;-74
2022/03/04 08:24:11;;;;;;;47.40;24.15;;;;;;;3.79;49.97;93573.75;5005037;28;20018;-73
2022/03/04 08:26:38;;;;;;;57.10;25.50;;;;;;;3.88;49.42;93579.19;5004954;28;20371;-74
2022/03/04 08:29:05;;;;;;;56.17;24.58;;;;;;;3.95;49.52;93584.16;5005136;28;20030;-74
2022/03/04 08:31:30;;;;;;;46.28;23.27;;;;;;;3.98;48.97;93583.59;5005185;28;20041;-74
2022/03/04 08:33:56;;;;;;;44.75;21.17;;;;;;;4.05;47.46;93581.44;5003641;28;20038;-74
2022/03/04 08:36:21;;;;;;;42.78;19.77;;;;;;;4.06;46.94;93588.28;5004700;28;20102;-74
2022/03/04 08:38:47;;;;;;;42.67;20.65;;;;;;;4.05;46.83;93586.72;5004846;28;20126;-74
2022/03/04 08:41:13;;;;;;;47.33;23.02;;;;;;;4.01;47.28;93598.88;5004935;28;20108;-74
2022/03/04 08:43:39;;;;;;;54.05;22.67;;;;;;;4.00;47.84;93597.28;5004805;28;20185;-74
2022/03/04 08:46:05;;;;;;;51.97;25.95;;;;;;;4.01;47.99;93601.53;5004687;28;20065;-74
2022/03/04 08:48:30;;;;;;;51.05;24.52;;;;;;;4.03;47.77;93594.13;5004834;28;20335;-73
2022/03/04 08:50:56;;;;;;;50.80;21.63;;;;;;;4.01;47.96;93591.75;5004642;28;20216;-73
2022/03/04 08:53:21;;;;;;;43.33;21.52;;;;;;;4.01;47.76;93590.97;5004663;28;20030;-74
2022/03/04 08:55:47;;;;;;;65.00;21.60;;;;;;;4.03;46.69;93599.38;5004389;28;20022;-73
2022/03/04 08:58:13;;;;;;;43.28;19.95;;;;;;;4.03;46.63;93594.13;5004378;28;20304;-74
2022/03/04 09:00:38;;;;;;;38.67;20.58;;;;;;;4.06;47.10;93593.53;5004344;28;20022;-74
2022/03/04 09:03:04;;;;;;;47.13;21.63;;;;;;;4.05;46.44;93596.44;5004462;28;20097;-74
2022/03/04 09:05:30;;;;;;;47.00;21.15;;;;;;;4.01;46.78;93590.97;5004523;28;20090;-74
2022/03/04 09:07:56;;;;;;;51.97;20.73;;;;;;;4.00;47.13;93589.38;5004028;28;20247;-74
2022/03/04 09:10:21;;;;;;;44.47;20.52;;;;;;;4.04;47.02;93585.13;5004262;28;20046;-74
2022/03/04 09:12:46;;;;;;;44.75;18.50;;;;;;;4.06;46.82;93588.28;5003601;28;20037;-74
2022/03/04 09:15:12;;;;;;;39.85;19.17;;;;;;;3.73;46.33;93588.03;5004144;28;20018;-72
2022/03/04 09:17:40;;;;;;;38.55;20.88;;;;;;;3.79;46.91;93584.28;5004201;28;20018;-73
2022/03/04 09:20:06;;;;;;;50.92;20.55;;;;;;;3.85;47.12;93592.94;5004009;28;20371;-74
2022/03/04 09:22:31;;;;;;;41.60;20.10;;;;;;;3.94;47.43;93591.28;5004209;28;20316;-74
2022/03/04 09:24:57;;;;;;;50.17;19.13;;;;;;;4.08;46.49;93599.31;5003861;28;20025;-73
2022/03/04 09:27:23;;;;;;;36.58;17.63;;;;;;;4.19;46.42;93595.53;5004231;28;20252;-74
2022/03/04 09:29:48;;;;;;;38.05;16.73;;;;;;;4.24;45.92;93588.63;5003909;28;20022;-74
2022/03/04 09:32:14;;;;;;;34.78;17.60;;;;;;;4.38;45.87;93598.25;5004003;28;20022;-74
2022/03/04 09:34:40;;;;;;;43.83;19.75;;;;;;;4.48;45.70;93596.53;5003774;28;20026;-73
2022/03/04 09:37:05;;;;;;;41.58;15.35;;;;;;;4.56;45.81;93585.38;5003785;28;20022;-73
2022/03/04 09:39:31;;;;;;;30.65;14.10;;;;;;;4.70;45.00;93596.03;5003661;28;20030;-75
2022/03/04 09:41:58;;;;;;;23.70;10.98;;;;;;;4.82;43.46;93596.41;5003702;28;20344;-73
2022/03/04 09:44:23;;;;;;;26.23;12.55;;;;;;;4.90;42.20;93589.72;5003594;28;20018;-73
2022/03/04 09:46:49;;;;;;;25.98;12.70;;;;;;;4.89;42.96;93594.22;5003644;28;20273;-73
2022/03/04 09:49:16;;;;;;;41.30;15.25;;;;;;;4.94;43.42;93596.00;5003486;28;20038;-73
2022/03/04 09:51:41;;;;;;;21.98;11.70;;;;;;;5.00;42.42;93600.94;5003648;28;20018;-73
2022/03/04 09:54:07;;;;;;;33.05;11.68;;;;;;;5.04;42.92;93595.88;5003705;28;20029;-73
2022/03/04 09:56:32;;;;;;;27.42;12.73;;;;;;;5.11;42.69;93596.31;5003710;28;20285;-72
2022/03/04 09:58:58;;;;;;;25.00;12.27;;;;;;;5.17;42.42;93595.19;5003489;28;20025;-74
2022/03/04 10:01:24;;;;;;;35.80;13.23;;;;;;;5.19;42.31;93592.22;5003465;28;20603;-73
2022/03/04 10:03:54;;;;;;;26.13;13.68;;;;;;;5.21;42.30;93587.44;5003370;28;20098;-74
2022/03/04 10:06:20;;;;;;;29.55;12.52;;;;;;;5.25;42.83;93591.13;5003445;28;20014;-74
2022/03/04 10:08:49;;;;;;;33.85;13.40;;;;;;;5.30;43.22;93585.75;5003463;28;20018;-74
2022/03/04 10:11:26;;;;;;;31.63;12.52;;;;;;;5.41;43.10;93584.53;5003265;28;20093;-74
2022/03/04 10:13:54;;;;;;;33.45;13.00;;;;;;;5.53;42.68;93578.78;5003441;28;20101;-74
2022/03/04 10:16:26;;;;;;;26.13;13.13;;;;;;;5.68;41.62;93583.09;5003272;28;20329;-74
2022/03/04 10:19:05;;;;;;;25.17;12.45;;;;;;;5.78;40.89;93575.00;5002985;28;20034;-73
2022/03/04 10:21:49;;;;;;;30.23;14.30;;;;;;;5.83;41.68;93572.25;5003279;28;20061;-74
2022/03/04 10:24:16;;;;;;;33.40;13.52;;;;;;;5.93;40.88;93568.66;5003710;28;20031;-73
2022/03/04 10:26:42;;;;;;;28.88;14.30;;;;;;;5.92;41.14;93561.00;5007162;28;20018;-73
2022/03/04 10:29:22;;;;;;;30.67;15.13;;;;;;;5.86;41.35;93565.59;5007055;28;20085;-73
2022/03/04 10:32:06;;;;;;;34.08;15.32;;;;;;;5.99;40.80;93561.44;5007175;28;20076;-73
2022/03/04 10:34:42;;;;;;;35.97;15.48;;;;;;;6.03;40.83;93567.72;5007345;28;20034;-73
2022/03/04 10:37:08;;;;;;;35.63;14.77;;;;;;;6.13;41.30;93562.25;5006943;28;20026;-74
2022/03/04 10:39:33;;;;;;;32.78;14.90;;;;;;;6.26;41.60;93560.69;5007498;28;20018;-74
2022/03/04 10:41:59;;;;;;;32.95;15.55;;;;;;;6.34;40.92;93546.00;5006844;28;20042;-74
2022/03/04 10:44:25;;;;;;;36.38;16.73;;;;;;;6.39;40.22;93551.19;5006953;28;20022;-75
2022/03/04 10:46:55;;;;;;;39.70;16.77;;;;;;;6.36;39.81;93547.28;5006736;28;20022;-74
2022/03/04 10:49:27;;;;;;;34.58;16.60;;;;;;;6.43;40.80;93534.44;5006860;28;20030;-74
2022/03/04 10:52:06;;;;;;;;;;;;;;;6.16;40.08;93539.72;5007122;28;20030;-73
2022/03/04 10:54:31;;;;;;;39.75;16.25;;;;;;;5.90;40.71;93531.41;5006981;28;19968;-73
2022/03/04 10:56:56;;;;;;;39.30;15.48;;;;;;;6.08;41.24;93529.81;5006565;28;20026;-73
2022/03/04 10:59:23;;;;;;;38.05;15.90;;;;;;;6.21;40.10;93536.97;5006729;28;20022;-73
2022/03/04 11:01:55;;;;;;;31.25;15.40;;;;;;;6.19;40.14;93528.56;5006519;28;20026;-74
2022/03/04 11:04:22;;;;;;;30.55;16.50;;;;;;;6.27;40.35;93524.41;5006208;28;20038;-74
2022/03/04 11:06:49;;;;;;;36.13;15.90;;;;;;;6.30;40.32;93518.56;5006520;28;20022;-74
2022/03/04 11:09:15;;;;;;;34.33;15.80;;;;;;;6.32;39.97;93517.16;5006670;28;20022;-74
2022/03/04 11:11:43;;;;;;;34.97;15.40;;;;;;;6.25;40.62;93518.63;5006481;28;20018;-74
2022/03/04 11:14:11;;;;;;;38.25;16.70;;;;;;;6.23;40.23;93518.94;5006275;28;20033;-74
2022/03/04 11:16:37;;;;;;;33.28;16.88;;;;;;;6.22;40.35;93510.22;5006238;28;20105;-74